Time;durP1;ratioP1;P1;durP2;ratioP2;P2;SDS_P1;SDS_P2;PMS_P1;PMS_P2;Temp;Humidity;BMP_temperature;BMP_pressure;BME280_temperature;BME280_humidity;BME280_pressure;Samples;Min_cycle;Max_cycle;Signal;HPM_P1;HPM_P2
2021/05/25 00:01:43;;;;;;;2.45;1.73;;;11.40;99.90;;;;;;5046485;28;20064;-71
2021/05/25 00:04:09;;;;;;;2.33;1.77;;;11.40;99.90;;;;;;5046817;28;20034;-71
2021/05/25 00:06:35;;;;;;;3.97;2.13;;;11.30;99.90;;;;;;5046690;28;20052;-72
2021/05/25 00:09:01;;;;;;;2.65;1.77;;;11.30;99.90;;;;;;5046976;28;20091;-71
2021/05/25 00:11:27;;;;;;;3.03;1.73;;;11.30;99.90;;;;;;5046592;28;20028;-70
2021/05/25 00:13:53;;;;;;;4.05;2.35;;;11.30;99.90;;;;;;5046232;28;20022;-70
2021/05/25 00:16:19;;;;;;;4.55;2.17;;;11.30;99.90;;;;;;5046457;28;20029;-70
2021/05/25 00:18:45;;;;;;;2.58;1.63;;;11.20;99.90;;;;;;5042286;28;20026;-70
2021/05/25 00:21:10;;;;;;;2.13;1.60;;;11.30;99.90;;;;;;5026310;28;20046;-71
2021/05/25 00:23:36;;;;;;;3.50;1.52;;;11.20;99.90;;;;;;5026785;28;20050;-73
2021/05/25 00:26:02;;;;;;;4.20;1.98;;;11.20;99.90;;;;;;5025404;28;20026;-71
2021/05/25 00:28:27;;;;;;;1.92;1.63;;;11.10;99.90;;;;;;5026156;28;20057;-71
2021/05/25 00:30:53;;;;;;;3.45;2.13;;;11.10;99.90;;;;;;5008801;28;20026;-69
2021/05/25 00:33:18;;;;;;;3.70;2.45;;;11.10;99.90;;;;;;5026237;28;20049;-70
2021/05/25 00:35:44;;;;;;;4.53;2.10;;;11.10;99.90;;;;;;5029075;28;20030;-71
2021/05/25 00:38:11;;;;;;;2.28;1.52;;;11.00;99.90;;;;;;5040081;28;20021;-71
2021/05/25 00:40:38;;;;;;;2.58;1.90;;;11.00;99.90;;;;;;5024992;28;20034;-70
2021/05/25 00:43:03;;;;;;;3.83;1.88;;;11.00;99.90;;;;;;5037183;28;20029;-70
2021/05/25 00:45:29;;;;;;;3.05;1.83;;;10.90;99.90;;;;;;5046010;28;20044;-72
2021/05/25 00:47:55;;;;;;;3.00;1.90;;;10.90;99.90;;;;;;5045660;28;20045;-72
2021/05/25 00:50:25;;;;;;;3.40;2.47;;;10.90;99.90;;;;;;5045596;28;20029;-73
2021/05/25 00:52:54;;;;;;;9.05;2.13;;;10.90;99.90;;;;;;5045717;28;20030;-73
2021/05/25 00:55:45;;;;;;;3.60;2.35;;;10.90;99.90;;;;;;5045360;28;20036;-71
2021/05/25 00:58:11;;;;;;;6.00;2.10;;;10.80;99.90;;;;;;5041186;28;20037;-71
2021/05/25 01:00:48;;;;;;;3.42;2.17;;;10.80;99.90;;;;;;5024548;28;20038;-71
2021/05/25 01:03:23;;;;;;;5.15;2.22;;;10.80;99.90;;;;;;5025478;28;20506;-71
2021/05/25 01:05:49;;;;;;;2.40;1.67;;;10.80;99.90;;;;;;5008254;28;20033;-71
2021/05/25 01:08:16;;;;;;;4.13;2.42;;;10.70;99.90;;;;;;5025643;28;20096;-71
2021/05/25 01:10:50;;;;;;;4.53;2.20;;;10.70;99.90;;;;;;5025797;28;20425;-73
2021/05/25 01:13:20;;;;;;;;;;;10.70;99.90;;;;;;5026287;28;20030;-69
2021/05/25 01:15:47;;;;;;;3.65;1.80;;;10.70;99.90;;;;;;5025488;28;20373;-71
2021/05/25 01:18:13;;;;;;;4.35;2.03;;;10.70;99.90;;;;;;5036829;28;20022;-71
2021/05/25 01:20:40;;;;;;;2.88;1.88;;;10.70;99.90;;;;;;5045387;28;20060;-72
2021/05/25 01:23:09;;;;;;;5.50;1.80;;;10.70;99.90;;;;;;5045217;28;20112;-72
2021/05/25 01:25:36;;;;;;;2.38;1.60;;;10.70;99.90;;;;;;5045234;28;20030;-72
2021/05/25 01:28:04;;;;;;;2.70;1.55;;;10.70;99.90;;;;;;5045376;28;20037;-70
2021/05/25 01:30:33;;;;;;;4.65;2.17;;;10.60;99.90;;;;;;5027297;28;20029;-70
2021/05/25 01:33:00;;;;;;;1.88;1.25;;;10.60;99.90;;;;;;5044965;28;20028;-71
2021/05/25 01:35:26;;;;;;;2.53;1.40;;;10.70;99.90;;;;;;5045319;28;20037;-71
2021/05/25 01:37:53;;;;;;;2.42;1.52;;;10.50;99.90;;;;;;5044660;28;20359;-71
2021/05/25 01:40:19;;;;;;;1.92;1.30;;;10.50;99.90;;;;;;5027000;28;20052;-71
2021/05/25 01:42:45;;;;;;;2.53;1.70;;;10.50;99.90;;;;;;5044867;28;20021;-71
2021/05/25 01:45:18;;;;;;;2.60;1.58;;;10.50;99.90;;;;;;5044739;28;20055;-71
2021/05/25 01:47:44;;;;;;;2.47;1.50;;;10.50;99.90;;;;;;5044872;28;20029;-72
2021/05/25 01:50:15;;;;;;;4.90;1.70;;;10.50;99.90;;;;;;5044826;28;20092;-72
2021/05/25 01:52:50;;;;;;;4.82;1.67;;;10.50;99.90;;;;;;5044859;28;20154;-71
2021/05/25 01:55:33;;;;;;;12.55;2.25;;;10.50;99.90;;;;;;5044780;28;20025;-70
2021/05/25 01:58:05;;;;;;;3.05;1.95;;;10.50;99.90;;;;;;5044062;28;20039;-74
2021/05/25 02:00:31;;;;;;;2.47;1.63;;;10.50;99.90;;;;;;5044521;28;20089;-72
2021/05/25 02:02:58;;;;;;;2.58;1.38;;;10.50;99.90;;;;;;5044495;28;20053;-71
2021/05/25 02:05:23;;;;;;;3.25;1.83;;;10.50;99.90;;;;;;5028160;28;20045;-70
2021/05/25 02:07:51;;;;;;;2.60;1.30;;;10.50;99.90;;;;;;5024620;28;20034;-68
2021/05/25 02:10:33;;;;;;;2.72;1.50;;;10.50;99.90;;;;;;5023580;28;20033;-70
2021/05/25 02:13:17;;;;;;;4.40;1.58;;;10.50;99.90;;;;;;5024369;28;20085;-69
2021/05/25 02:15:44;;;;;;;1.90;1.13;;;10.50;99.90;;;;;;5025019;28;20030;-71
2021/05/25 02:18:15;;;;;;;3.47;1.50;;;10.50;99.90;;;;;;5024589;28;20030;-73
2021/05/25 02:20:43;;;;;;;3.67;1.80;;;10.50;99.90;;;;;;5023248;28;20045;-70
2021/05/25 02:23:09;;;;;;;2.97;1.40;;;10.50;99.90;;;;;;5024772;28;20030;-71
2021/05/25 02:25:36;;;;;;;2.05;1.08;;;10.40;99.90;;;;;;5024847;28;20031;-75
2021/05/25 02:28:03;;;;;;;0.85;0.68;;;10.40;99.90;;;;;;5024657;28;20052;-70
2021/05/25 02:30:29;;;;;;;0.93;0.63;;;10.40;99.90;;;;;;5024739;28;20106;-69
2021/05/25 02:32:57;;;;;;;2.65;1.48;;;10.40;99.90;;;;;;5024650;28;20049;-71
2021/05/25 02:35:23;;;;;;;1.15;0.90;;;10.30;99.90;;;;;;5024376;28;20028;-74
2021/05/25 02:37:49;;;;;;;1.48;1.05;;;10.30;99.90;;;;;;5023256;28;20034;-72
2021/05/25 02:40:16;;;;;;;3.25;1.58;;;10.40;99.90;;;;;;5024070;28;20173;-70
2021/05/25 02:42:41;;;;;;;1.45;1.02;;;10.30;99.90;;;;;;5024504;28;20045;-70
2021/05/25 02:45:08;;;;;;;5.53;1.15;;;10.30;99.90;;;;;;5024802;28;20034;-67
2021/05/25 02:47:33;;;;;;;1.70;1.17;;;10.30;99.90;;;;;;5024377;28;20026;-71
2021/05/25 02:50:08;;;;;;;6.13;0.95;;;10.30;99.90;;;;;;5023076;28;20098;-72
2021/05/25 02:52:36;;;;;;;2.53;0.80;;;10.30;99.90;;;;;;5024654;28;20025;-72
2021/05/25 02:55:04;;;;;;;1.88;1.25;;;10.30;99.90;;;;;;5024164;28;20061;-68
2021/05/25 02:57:30;;;;;;;2.40;1.30;;;10.20;99.90;;;;;;5024585;28;20022;-72
2021/05/25 02:59:55;;;;;;;2.95;1.30;;;10.20;99.90;;;;;;5024269;28;20025;-69
2021/05/25 03:02:21;;;;;;;1.73;1.17;;;10.10;99.90;;;;;;5023653;28;20513;-71
2021/05/25 03:04:48;;;;;;;3.33;1.33;;;10.10;99.90;;;;;;5024164;28;20065;-70
2021/05/25 03:07:13;;;;;;;3.28;1.73;;;10.10;99.90;;;;;;5024260;28;20034;-70
2021/05/25 03:09:39;;;;;;;2.65;1.70;;;10.10;99.90;;;;;;5027072;28;20089;-70
2021/05/25 03:12:05;;;;;;;3.35;1.77;;;10.00;99.90;;;;;;5028381;28;20026;-69
2021/05/25 03:14:31;;;;;;;4.03;1.80;;;10.00;99.90;;;;;;5027848;28;20482;-72
2021/05/25 03:16:57;;;;;;;3.00;1.77;;;10.00;99.90;;;;;;5027444;28;20050;-74
2021/05/25 03:19:22;;;;;;;6.55;2.13;;;9.90;99.90;;;;;;5027637;28;20030;-70
2021/05/25 03:21:48;;;;;;;3.13;1.90;;;9.90;99.90;;;;;;5027535;28;20153;-71
2021/05/25 03:24:16;;;;;;;3.75;2.22;;;9.90;99.90;;;;;;5027511;28;20037;-76
2021/05/25 03:26:42;;;;;;;4.28;1.85;;;9.90;99.90;;;;;;5027895;28;20050;-71
2021/05/25 03:29:08;;;;;;;4.20;2.22;;;9.90;99.90;;;;;;5027485;28;20026;-71
2021/05/25 03:31:35;;;;;;;3.13;1.98;;;9.80;99.90;;;;;;5027688;28;20086;-70
2021/05/25 03:34:01;;;;;;;2.97;1.95;;;9.80;99.90;;;;;;5027591;28;20834;-70
2021/05/25 03:36:27;;;;;;;5.18;1.95;;;9.80;99.90;;;;;;5027183;28;20033;-73
2021/05/25 03:38:52;;;;;;;2.38;1.55;;;9.80;99.90;;;;;;5027631;28;20030;-73
2021/05/25 03:41:18;;;;;;;3.58;1.83;;;9.80;99.90;;;;;;5025895;28;20033;-70
2021/05/25 03:43:44;;;;;;;4.20;2.10;;;9.70;99.90;;;;;;5027238;28;20048;-70
2021/05/25 03:46:09;;;;;;;5.53;2.38;;;9.70;99.90;;;;;;5026012;28;20026;-72
2021/05/25 03:48:35;;;;;;;3.53;1.65;;;9.70;99.90;;;;;;5026161;28;20026;-71
2021/05/25 03:51:00;;;;;;;2.35;1.50;;;9.70;99.90;;;;;;5027180;28;20029;-71
2021/05/25 03:53:27;;;;;;;2.22;1.52;;;9.60;99.90;;;;;;5027059;28;20040;-71
2021/05/25 03:55:55;;;;;;;2.65;1.50;;;9.60;99.90;;;;;;5027177;28;20525;-70
2021/05/25 04:01:05;;;;;;;6.45;2.22;;;9.50;99.90;;;;;;5027199;28;20452;-72
2021/05/25 04:03:33;;;;;;;3.83;2.15;;;9.60;99.90;;;;;;5025169;28;20046;-71
2021/05/25 04:05:58;;;;;;;6.50;2.22;;;9.50;99.90;;;;;;5026873;28;20081;-74
2021/05/25 04:08:24;;;;;;;7.60;2.25;;;9.60;99.90;;;;;;5026924;28;20034;-71
2021/05/25 04:10:50;;;;;;;3.33;2.28;;;9.50;99.90;;;;;;5026308;28;20033;-71
2021/05/25 04:13:16;;;;;;;3.88;2.47;;;9.50;99.90;;;;;;5026585;28;20026;-74
2021/05/25 04:15:52;;;;;;;7.55;2.17;;;9.60;99.90;;;;;;5025675;28;20036;-71
2021/05/25 04:18:18;;;;;;;3.55;2.05;;;9.60;99.90;;;;;;5026228;28;20029;-71
2021/05/25 04:20:44;;;;;;;6.68;2.78;;;9.60;99.90;;;;;;5026036;28;20069;-73
2021/05/25 04:23:10;;;;;;;5.65;3.00;;;9.50;99.90;;;;;;5026737;28;20037;-72
2021/05/25 04:25:36;;;;;;;5.50;2.97;;;9.60;99.90;;;;;;5025162;28;20026;-72
2021/05/25 04:28:01;;;;;;;5.22;2.80;;;9.60;99.90;;;;;;5009097;28;20069;-72
2021/05/25 04:30:27;;;;;;;5.35;3.08;;;9.60;99.90;;;;;;5026303;28;20069;-73
2021/05/25 04:32:53;;;;;;;6.40;2.85;;;9.70;99.90;;;;;;5024740;28;20022;-74
2021/05/25 04:35:19;;;;;;;6.57;2.88;;;9.70;99.90;;;;;;5026363;28;20029;-74
2021/05/25 04:37:45;;;;;;;6.57;3.38;;;9.70;99.90;;;;;;5026387;28;20022;-74
2021/05/25 04:40:11;;;;;;;6.22;3.05;;;9.70;99.90;;;;;;5026005;28;20042;-72
2021/05/25 04:42:37;;;;;;;5.60;2.70;;;9.80;99.90;;;;;;5026371;28;20026;-72
2021/05/25 04:45:03;;;;;;;8.40;3.35;;;9.80;99.90;;;;;;5008747;28;20045;-72
2021/05/25 04:47:29;;;;;;;6.97;3.53;;;9.80;99.90;;;;;;5026035;28;20121;-74
2021/05/25 04:49:54;;;;;;;5.95;2.80;;;9.80;99.90;;;;;;5026132;28;20034;-72
2021/05/25 04:52:20;;;;;;;6.40;3.72;;;9.80;99.90;;;;;;5024681;28;20073;-72
2021/05/25 04:54:46;;;;;;;4.53;2.90;;;9.70;99.90;;;;;;5024578;28;20029;-71
2021/05/25 04:57:12;;;;;;;6.20;2.88;;;9.80;99.90;;;;;;5024790;28;20026;-72
2021/05/25 04:59:37;;;;;;;6.47;3.75;;;9.80;99.90;;;;;;5025791;28;20048;-73
2021/05/25 05:02:03;;;;;;;6.55;3.15;;;9.80;99.90;;;;;;5025607;28;20387;-70
2021/05/25 05:04:29;;;;;;;6.30;3.20;;;9.90;99.90;;;;;;5025882;28;20037;-69
2021/05/25 05:06:54;;;;;;;8.70;3.42;;;9.90;99.90;;;;;;5025392;28;20030;-71
2021/05/25 05:09:21;;;;;;;7.50;4.03;;;9.90;99.90;;;;;;5037783;28;20030;-72
2021/05/25 05:11:47;;;;;;;8.60;3.95;;;9.90;99.90;;;;;;5045235;28;20026;-71
2021/05/25 05:14:18;;;;;;;9.48;4.00;;;9.90;99.90;;;;;;5044549;28;20030;-71
2021/05/25 05:16:44;;;;;;;5.53;3.22;;;9.80;99.90;;;;;;5027650;28;20026;-74
2021/05/25 05:19:10;;;;;;;5.63;3.10;;;9.80;99.90;;;;;;5045293;28;20386;-74
2021/05/25 05:21:35;;;;;;;8.07;3.80;;;9.80;99.90;;;;;;5026947;28;20073;-72
2021/05/25 05:24:01;;;;;;;5.35;3.67;;;9.80;99.90;;;;;;5045325;28;20029;-71
2021/05/25 05:26:27;;;;;;;6.13;3.72;;;9.80;99.90;;;;;;5044317;28;20049;-73
2021/05/25 05:28:53;;;;;;;7.57;3.80;;;9.80;99.90;;;;;;5023659;28;20037;-72
2021/05/25 05:31:18;;;;;;;6.05;3.60;;;9.90;99.90;;;;;;5024828;28;20033;-72
2021/05/25 05:33:44;;;;;;;22.05;3.20;;;9.80;99.90;;;;;;5024677;28;20030;-76
2021/05/25 05:36:10;;;;;;;7.43;4.07;;;9.90;99.90;;;;;;5025144;28;20041;-73
2021/05/25 05:38:36;;;;;;;6.72;2.97;;;9.90;99.90;;;;;;5025579;28;20029;-74
2021/05/25 05:41:06;;;;;;;6.95;3.47;;;9.90;99.90;;;;;;5024476;28;20052;-72
2021/05/25 05:43:33;;;;;;;7.25;3.22;;;9.90;99.90;;;;;;5024991;28;20729;-70
2021/05/25 05:45:59;;;;;;;6.75;3.00;;;9.90;99.90;;;;;;5025277;28;20042;-72
2021/05/25 05:48:27;;;;;;;7.07;2.80;;;9.90;99.90;;;;;;5032323;28;20025;-74
2021/05/25 05:50:53;;;;;;;3.42;1.88;;;9.90;99.90;;;;;;5024514;28;20026;-70
2021/05/25 05:53:19;;;;;;;3.38;2.03;;;9.90;99.90;;;;;;5025221;28;20100;-71
2021/05/25 05:55:45;;;;;;;4.38;1.88;;;9.90;99.90;;;;;;5024852;28;20029;-75
2021/05/25 05:58:10;;;;;;;4.25;1.80;;;9.90;99.90;;;;;;5024708;28;20030;-72
2021/05/25 06:00:37;;;;;;;4.18;2.17;;;9.90;99.90;;;;;;5022975;28;20044;-74
2021/05/25 06:03:04;;;;;;;3.58;2.05;;;9.90;99.90;;;;;;5021911;28;20169;-72
2021/05/25 06:05:30;;;;;;;5.43;2.55;;;10.00;99.90;;;;;;5021348;28;20030;-70
2021/05/25 06:07:56;;;;;;;3.72;2.03;;;10.00;99.90;;;;;;5005145;28;20037;-74
2021/05/25 06:10:21;;;;;;;5.53;1.92;;;10.00;99.90;;;;;;5004768;28;20031;-69
2021/05/25 06:12:47;;;;;;;4.10;2.00;;;10.00;99.90;;;;;;5004681;28;20097;-70
2021/05/25 06:15:13;;;;;;;2.40;1.52;;;10.00;99.90;;;;;;5004833;28;20034;-72
2021/05/25 06:17:39;;;;;;;2.45;1.65;;;10.00;99.90;;;;;;5004292;28;20057;-73
2021/05/25 06:20:08;;;;;;;6.10;1.77;;;10.10;99.90;;;;;;5004768;28;20050;-71
2021/05/25 06:22:34;;;;;;;2.70;1.75;;;10.10;99.90;;;;;;5017380;28;20559;-71
2021/05/25 06:25:00;;;;;;;3.63;2.50;;;10.10;99.90;;;;;;5024304;28;20030;-74
2021/05/25 06:27:25;;;;;;;7.88;1.70;;;10.10;99.90;;;;;;5023077;28;20029;-72
2021/05/25 06:29:51;;;;;;;9.88;1.88;;;10.10;99.90;;;;;;5016565;28;20030;-72
2021/05/25 06:32:17;;;;;;;4.55;1.90;;;10.00;99.90;;;;;;5004421;28;20027;-72
2021/05/25 06:34:42;;;;;;;4.20;2.30;;;10.00;99.90;;;;;;5004755;28;20101;-75
2021/05/25 06:37:08;;;;;;;4.47;2.10;;;10.00;99.90;;;;;;5004622;28;20033;-71
2021/05/25 06:39:34;;;;;;;6.22;2.97;;;10.00;99.90;;;;;;5004862;28;20030;-73
2021/05/25 06:42:00;;;;;;;9.43;4.22;;;10.00;99.90;;;;;;5003488;28;20038;-70
2021/05/25 06:44:25;;;;;;;7.78;3.45;;;10.00;99.90;;;;;;5008043;28;20045;-71
2021/05/25 06:46:51;;;;;;;9.32;3.92;;;10.10;99.90;;;;;;5021278;28;20027;-70
2021/05/25 06:49:16;;;;;;;12.40;4.43;;;10.20;99.90;;;;;;5008376;28;20037;-72
2021/05/25 06:51:43;;;;;;;5.90;3.28;;;10.30;99.90;;;;;;5008638;28;20034;-69
2021/05/25 06:54:11;;;;;;;9.18;4.20;;;10.30;99.90;;;;;;5042881;28;20489;-71
2021/05/25 06:56:37;;;;;;;6.20;3.47;;;10.30;99.90;;;;;;5028125;28;20038;-72
2021/05/25 06:59:03;;;;;;;7.03;3.25;;;10.40;99.90;;;;;;5027960;28;20022;-73
2021/05/25 07:01:28;;;;;;;10.65;3.70;;;10.30;99.90;;;;;;5019566;28;20066;-71
2021/05/25 07:03:54;;;;;;;9.70;3.60;;;10.30;99.90;;;;;;5026837;28;20046;-70
2021/05/25 07:06:20;;;;;;;9.23;4.18;;;10.30;99.90;;;;;;5027897;28;20030;-71
2021/05/25 07:08:48;;;;;;;6.70;3.75;;;10.30;99.90;;;;;;5028289;28;20030;-76
2021/05/25 07:11:14;;;;;;;12.35;3.92;;;10.20;99.90;;;;;;5027861;28;20110;-72
2021/05/25 07:13:40;;;;;;;6.80;3.20;;;10.20;99.90;;;;;;5027398;28;20026;-69
2021/05/25 07:16:05;;;;;;;6.18;3.17;;;10.20;99.90;;;;;;5028318;28;20029;-72
2021/05/25 07:18:31;;;;;;;8.45;4.15;;;10.10;99.90;;;;;;5027218;28;20018;-75
2021/05/25 07:20:56;;;;;;;7.47;3.85;;;10.10;99.90;;;;;;5027834;28;20038;-72
2021/05/25 07:23:22;;;;;;;8.48;4.45;;;10.00;99.90;;;;;;5026525;28;20076;-72
2021/05/25 07:25:48;;;;;;;5.93;3.33;;;10.00;99.90;;;;;;5026295;28;20041;-71
2021/05/25 07:28:14;;;;;;;10.48;4.88;;;10.00;99.90;;;;;;5026127;28;20034;-72
2021/05/25 07:30:41;;;;;;;8.57;4.35;;;10.10;99.90;;;;;;5026087;28;20022;-74
2021/05/25 07:33:08;;;;;;;7.55;4.50;;;10.20;99.90;;;;;;5009045;28;20398;-74
2021/05/25 07:35:33;;;;;;;8.48;5.00;;;10.30;99.90;;;;;;5031873;28;20110;-74
2021/05/25 07:37:59;;;;;;;11.75;4.80;;;10.40;99.90;;;;;;5027293;28;20034;-68
2021/05/25 07:40:25;;;;;;;6.40;3.75;;;10.40;99.90;;;;;;5045928;28;20045;-76
2021/05/25 07:42:50;;;;;;;7.93;4.35;;;10.40;99.90;;;;;;5028985;28;20033;-71
2021/05/25 07:45:16;;;;;;;9.55;4.38;;;10.40;99.90;;;;;;5047087;28;20026;-71
2021/05/25 07:47:43;;;;;;;6.25;4.05;;;10.30;99.90;;;;;;5046401;28;20081;-74
2021/05/25 07:50:13;;;;;;;10.48;4.10;;;10.30;99.90;;;;;;5029566;28;20025;-73
2021/05/25 07:52:40;;;;;;;6.72;4.28;;;10.30;99.90;;;;;;5047090;28;20037;-73
2021/05/25 07:55:07;;;;;;;19.75;3.33;;;10.30;99.90;;;;;;5027938;28;20021;-72
2021/05/25 07:57:33;;;;;;;7.35;3.58;;;10.20;99.90;;;;;;5029228;28;20075;-72
2021/05/25 07:59:58;;;;;;;11.57;3.90;;;10.30;99.90;;;;;;5045833;28;20029;-69
2021/05/25 08:02:24;;;;;;;12.02;4.07;;;10.30;99.90;;;;;;5045590;28;20145;-71
2021/05/25 08:04:50;;;;;;;13.00;3.78;;;10.50;99.90;;;;;;5028200;28;20028;-66
2021/05/25 08:07:15;;;;;;;5.38;3.22;;;10.50;99.90;;;;;;5046379;28;20500;-72
2021/05/25 08:09:41;;;;;;;6.65;3.90;;;10.70;99.90;;;;;;5046395;28;20026;-71
2021/05/25 08:12:07;;;;;;;5.53;3.22;;;10.80;99.90;;;;;;5029077;28;20029;-72
2021/05/25 08:14:32;;;;;;;5.47;3.22;;;10.80;99.90;;;;;;5045908;28;20041;-69
2021/05/25 08:17:05;;;;;;;3.60;2.17;;;10.90;99.90;;;;;;5038847;28;20040;-71
2021/05/25 08:19:34;;;;;;;6.03;2.42;;;11.00;99.90;;;;;;5029943;28;20034;-72
2021/05/25 08:22:02;;;;;;;3.28;1.70;;;11.10;99.90;;;;;;5045865;28;20043;-75
2021/05/25 08:24:27;;;;;;;5.80;2.00;;;11.10;99.90;;;;;;5030336;28;20038;-68
2021/05/25 08:26:53;;;;;;;4.68;2.63;;;11.10;99.90;;;;;;5025052;28;20032;-73
2021/05/25 08:29:23;;;;;;;4.85;2.03;;;11.20;99.90;;;;;;5026248;28;20033;-72
2021/05/25 08:31:49;;;;;;;5.25;2.75;;;11.30;99.90;;;;;;5031020;28;20026;-75
2021/05/25 08:34:15;;;;;;;4.32;2.17;;;11.40;99.90;;;;;;5038037;28;20090;-70
2021/05/25 08:36:40;;;;;;;5.55;2.80;;;11.60;99.90;;;;;;5029720;28;20065;-71
2021/05/25 08:39:06;;;;;;;6.15;2.10;;;11.70;99.90;;;;;;5034081;28;20446;-72
2021/05/25 08:41:34;;;;;;;3.75;2.25;;;11.70;99.90;;;;;;5026011;28;20493;-71
2021/05/25 08:44:01;;;;;;;4.70;2.58;;;11.80;99.90;;;;;;5033397;28;20084;-71
2021/05/25 08:46:27;;;;;;;10.73;1.20;;;11.80;99.90;;;;;;5015421;28;20068;-71
2021/05/25 08:48:53;;;;;;;3.75;2.40;;;11.90;99.90;;;;;;5034823;28;20030;-71
2021/05/25 08:51:18;;;;;;;3.03;1.85;;;12.00;99.90;;;;;;5025998;28;20118;-72
2021/05/25 08:53:44;;;;;;;7.03;1.63;;;12.00;99.90;;;;;;5025917;28;20026;-74
2021/05/25 08:56:10;;;;;;;4.53;1.77;;;12.00;99.90;;;;;;5025415;28;20061;-71
2021/05/25 08:58:37;;;;;;;2.90;1.30;;;11.90;99.90;;;;;;5024662;28;20033;-73
2021/05/25 09:01:03;;;;;;;2.22;1.25;;;11.80;99.90;;;;;;5025718;28;20072;-72
2021/05/25 09:03:30;;;;;;;6.18;1.42;;;11.80;99.90;;;;;;5024947;28;20108;-76
2021/05/25 09:06:07;;;;;;;3.92;1.55;;;11.80;99.90;;;;;;5025662;28;20457;-71
2021/05/25 09:08:37;;;;;;;3.13;1.40;;;11.80;99.90;;;;;;5025804;28;20057;-72
2021/05/25 09:11:09;;;;;;;2.03;1.17;;;11.90;99.90;;;;;;5025925;28;20061;-70
2021/05/25 09:13:35;;;;;;;2.65;1.17;;;11.90;99.90;;;;;;5028572;28;20426;-74
2021/05/25 09:16:02;;;;;;;3.25;1.30;;;12.00;99.90;;;;;;5045204;28;20508;-73
2021/05/25 09:18:43;;;;;;;4.65;1.85;;;12.00;99.90;;;;;;5023933;28;20045;-71
2021/05/25 09:21:09;;;;;;;1.40;1.20;;;12.20;99.90;;;;;;5025970;28;20490;-74
2021/05/25 09:23:38;;;;;;;14.50;2.05;;;12.30;99.90;;;;;;5023991;28;20073;-74
2021/05/25 09:26:11;;;;;;;3.55;1.77;;;12.30;99.90;;;;;;5007476;28;20022;-73
2021/05/25 09:29:04;;;;;;;4.72;2.05;;;12.20;99.90;;;;;;5025475;28;20025;-76
2021/05/25 09:31:46;;;;;;;1.55;1.40;;;12.20;99.90;;;;;;5030543;28;20560;-69
2021/05/25 09:34:16;;;;;;;2.17;1.00;;;12.30;99.90;;;;;;5026190;28;20033;-70
2021/05/25 09:37:04;;;;;;;2.85;1.25;;;12.60;99.90;;;;;;5032113;28;20085;-74
2021/05/25 09:39:49;;;;;;;3.28;1.25;;;12.80;99.90;;;;;;5039215;28;20041;-73
2021/05/25 09:42:17;;;;;;;2.78;1.05;;;13.00;99.90;;;;;;5044653;28;20041;-75
2021/05/25 09:45:10;;;;;;;2.65;1.33;;;13.30;99.90;;;;;;5044433;28;20033;-74
2021/05/25 09:47:38;;;;;;;2.45;1.70;;;13.60;99.90;;;;;;5027317;28;20362;-70
2021/05/25 09:50:07;;;;;;;1.92;1.08;;;13.80;99.90;;;;;;5043934;28;20056;-73
2021/05/25 09:52:33;;;;;;;4.25;1.95;;;13.60;99.90;;;;;;5022253;28;20328;-71
2021/05/25 09:55:08;;;;;;;3.25;2.22;;;13.10;99.90;;;;;;5031590;28;20044;-75
2021/05/25 09:57:46;;;;;;;5.40;1.85;;;12.70;99.90;;;;;;5036309;28;20354;-73
2021/05/25 10:00:29;;;;;;;4.32;1.98;;;12.40;99.90;;;;;;5025627;28;20030;-73
2021/05/25 10:03:15;;;;;;;3.45;2.22;;;12.20;99.90;;;;;;5036972;28;20049;-74
2021/05/25 10:05:44;;;;;;;4.47;2.15;;;12.10;99.90;;;;;;5024633;28;20055;-75
2021/05/25 10:08:12;;;;;;;6.15;2.63;;;12.00;99.90;;;;;;5029469;28;20038;-74
2021/05/25 10:10:40;;;;;;;6.85;2.58;;;11.90;99.90;;;;;;5024764;28;20108;-77
2021/05/25 10:13:06;;;;;;;6.00;2.83;;;12.00;99.90;;;;;;5023058;28;20041;-74
2021/05/25 10:15:32;;;;;;;5.35;2.53;;;12.30;99.90;;;;;;5029740;28;20034;-73
2021/05/25 10:20:26;;;;;;;5.35;1.60;;;12.70;99.90;;;;;;5063600;28;20067;-76
2021/05/25 10:22:52;;;;;;;3.10;1.85;;;12.70;99.90;;;;;;5063515;28;20033;-76
2021/05/25 10:25:19;;;;;;;4.60;1.80;;;12.70;99.90;;;;;;5063977;28;20028;-77
2021/05/25 10:27:46;;;;;;;3.33;2.03;;;12.60;99.90;;;;;;5041799;28;20077;-74
2021/05/25 10:30:22;;;;;;;3.70;1.50;;;12.70;99.90;;;;;;5023914;28;20032;-74
2021/05/25 10:32:48;;;;;;;2.75;1.48;;;12.60;99.90;;;;;;5016941;28;20241;-74
2021/05/25 10:35:18;;;;;;;2.60;1.50;;;12.50;99.90;;;;;;5024008;28;20783;-77
2021/05/25 10:38:06;;;;;;;2.03;1.48;;;12.50;99.90;;;;;;5022222;28;20034;-76
2021/05/25 10:40:52;;;;;;;3.10;1.77;;;12.50;99.90;;;;;;5023227;28;20045;-71
2021/05/25 10:43:37;;;;;;;4.43;2.10;;;12.30;99.90;;;;;;5029009;28;20044;-74
2021/05/25 10:46:09;;;;;;;4.30;2.10;;;12.20;99.90;;;;;;5039650;28;20085;-76
2021/05/25 10:54:43;;;;;;;3.88;1.90;;;12.10;99.90;;;;;;5022697;28;20038;-76
2021/05/25 10:57:29;;;;;;;4.15;2.20;;;12.10;99.90;;;;;;5022236;28;20069;-76
2021/05/25 11:00:05;;;;;;;5.05;2.67;;;12.20;99.90;;;;;;5033490;28;20029;-73
2021/05/25 11:03:02;;;;;;;5.75;2.42;;;12.20;99.90;;;;;;5024861;28;20049;-78
2021/05/25 11:05:28;;;;;;;9.80;2.40;;;12.20;99.90;;;;;;5031324;28;20049;-75
2021/05/25 11:08:14;;;;;;;3.85;2.40;;;12.40;99.90;;;;;;5041874;28;20048;-77
2021/05/25 11:10:46;;;;;;;5.45;2.50;;;12.40;99.90;;;;;;5025157;28;20033;-75
2021/05/25 11:13:15;;;;;;;4.00;2.38;;;12.50;99.90;;;;;;5043548;28;20022;-74
2021/05/25 11:16:21;;;;;;;4.53;2.13;;;12.70;99.90;;;;;;5043923;28;20029;-76
2021/05/25 11:24:27;;;;;;;4.78;2.20;;;13.90;99.90;;;;;;5044206;28;20551;-71
2021/05/25 11:26:58;;;;;;;3.88;2.40;;;14.10;99.90;;;;;;5026086;28;20464;-74
2021/05/25 11:29:32;;;;;;;4.20;2.25;;;14.30;99.90;;;;;;5043848;28;20030;-76
2021/05/25 11:32:06;;;;;;;10.50;3.20;;;14.70;99.90;;;;;;5047588;28;20030;-77
2021/05/25 11:34:32;;;;;;;15.90;2.00;;;15.10;99.90;;;;;;5047292;28;20870;-76
2021/05/25 11:37:04;;;;;;;3.10;1.83;;;15.10;99.90;;;;;;5047138;28;20125;-75
2021/05/25 11:39:33;;;;;;;8.95;1.98;;;14.90;99.90;;;;;;5029604;28;20089;-74
2021/05/25 11:41:59;;;;;;;2.60;1.77;;;14.70;99.90;;;;;;5047205;28;20044;-71
2021/05/25 11:44:37;;;;;;;2.58;1.55;;;14.60;99.90;;;;;;5047258;28;20077;-73
2021/05/25 11:47:07;;;;;;;1.50;1.10;;;14.50;99.90;;;;;;5029428;28;20028;-77
2021/05/25 11:49:35;;;;;;;1.33;0.90;;;14.60;99.90;;;;;;5046714;28;20037;-74
2021/05/25 11:52:25;;;;;;;4.10;1.23;;;14.90;99.90;;;;;;5046226;28;20025;-77
2021/05/25 11:54:57;;;;;;;1.60;1.00;;;15.20;99.90;;;;;;5027311;28;20026;-76
2021/05/25 11:57:23;;;;;;;2.05;1.10;;;15.70;99.90;;;;;;5045157;28;20064;-75
2021/05/25 11:59:49;;;;;;;3.22;1.10;;;15.90;99.90;;;;;;5029093;28;20022;-76
2021/05/25 12:02:31;;;;;;;1.55;1.02;;;16.20;99.90;;;;;;5046728;28;20053;-73
2021/05/25 12:05:21;;;;;;;2.47;1.50;;;16.30;99.90;;;;;;5046766;28;20138;-73
2021/05/25 12:07:52;;;;;;;2.70;1.10;;;16.00;99.90;;;;;;5046645;28;20025;-73
2021/05/25 12:10:20;;;;;;;1.05;0.82;;;15.60;99.90;;;;;;5028543;28;20033;-72
2021/05/25 12:12:46;;;;;;;6.18;2.17;;;15.20;99.90;;;;;;5046304;28;20026;-72
2021/05/25 12:15:21;;;;;;;2.45;1.17;;;14.60;99.90;;;;;;5046808;28;20026;-73
2021/05/25 12:17:55;;;;;;;3.40;1.67;;;14.00;99.90;;;;;;5046639;28;20026;-71
2021/05/25 12:20:23;;;;;;;2.92;1.60;;;13.40;99.90;;;;;;5046536;28;20185;-73
2021/05/25 12:22:52;;;;;;;2.03;1.50;;;13.00;99.90;;;;;;5046435;28;20033;-74
2021/05/25 12:25:29;;;;;;;2.63;1.55;;;12.90;99.90;;;;;;5045890;28;20068;-73
2021/05/25 12:28:01;;;;;;;1.63;1.35;;;12.90;99.90;;;;;;5046240;28;20065;-75
2021/05/25 12:30:28;;;;;;;4.15;1.85;;;13.10;99.90;;;;;;5024967;28;20033;-75
2021/05/25 12:32:54;;;;;;;3.72;1.35;;;13.50;99.90;;;;;;5008190;28;20466;-77
2021/05/25 12:35:22;;;;;;;2.20;1.63;;;13.60;99.90;;;;;;5026391;28;20029;-77
2021/05/25 12:38:09;;;;;;;1.80;1.15;;;13.70;99.90;;;;;;5008374;28;20046;-73
2021/05/25 12:40:36;;;;;;;1.02;0.55;;;13.50;99.90;;;;;;5025987;28;20836;-73
2021/05/25 12:43:34;;;;;;;0.63;0.40;;;12.90;99.90;;;;;;5008584;28;20083;-71
2021/05/25 12:46:09;;;;;;;1.45;0.60;;;12.20;99.90;;;;;;4987154;28;20065;-75
2021/05/25 12:48:36;;;;;;;0.70;0.57;;;11.90;99.90;;;;;;5026611;28;20033;-72
2021/05/25 12:51:03;;;;;;;2.40;0.77;;;11.70;99.90;;;;;;5007899;28;20029;-77
2021/05/25 12:53:28;;;;;;;1.60;0.98;;;11.60;99.90;;;;;;5019438;28;20053;-75
2021/05/25 12:56:03;;;;;;;2.47;1.00;;;11.60;99.90;;;;;;5024670;28;20022;-71
2021/05/25 12:58:43;;;;;;;4.53;0.98;;;11.70;99.90;;;;;;5024523;28;20015;-74
2021/05/25 13:01:34;;;;;;;2.60;1.50;;;11.80;99.90;;;;;;5025784;28;20529;-71
2021/05/25 13:04:03;;;;;;;1.45;0.98;;;12.10;99.90;;;;;;5025783;28;20064;-70
2021/05/25 13:06:45;;;;;;;2.28;1.35;;;12.70;99.90;;;;;;5025691;28;20028;-71
2021/05/25 13:09:18;;;;;;;2.13;1.52;;;13.00;99.90;;;;;;5025569;28;20025;-73
2021/05/25 13:12:05;;;;;;;5.85;1.30;;;12.90;99.90;;;;;;5025543;28;20029;-70
2021/05/25 13:14:33;;;;;;;2.47;1.10;;;12.70;99.90;;;;;;5025402;28;20482;-71